logo
Search for airport 
image banner adimage banner adimage banner ad
image banner ad

SBFZ - Fortaleza / Pinto Martins

Located in Fortaleza / Pinto Martins, Brazil

ICAO - SBFZ, IATA - FOR

Data provided by Airmate  

General information

Coordinates: S3°46'33" W38°31'56"
Elevation is 83 feet MSL.
Magnetic variation is -21.033333333° East
View others Airports in Ceará

Operational data

Special qualification required
Current time UTC:
Current local time:
Weather
METAR: SBFZ 131500Z 15006KT 120V180 9999 VCSH SCT023 FEW030TCU 29/26 Q1010
TAF: TAF SBFZ 130900Z 1312/1412 18005KT 9999 SCT020 TX31/1316Z TN25/1408Z BECMG 1314/1316 10010KT PROB30 1317/1319 5000 RA BKN015 BECMG 1402/1404 23005KT FEW020 BECMG 1408/1410 18005KT RMK PHD
View NOTAMs / SUP AIP / TFR affecting this airport [VIEW]
Communications frequencies: [VIEW]

Runways:

RWY identifierQFULength (ft)Width (ft)SurfaceLDA (ft)
13105°2875280ASPH
31285°2875280ASPH

Airport contact information

Address: Fortaleza / Pinto Martins Brazil

Satellite view of SBFZ